Time;durP1;ratioP1;P1;durP2;ratioP2;P2;SDS_P1;SDS_P2;PMS_P1;PMS_P2;Temp;Humidity;BMP_temperature;BMP_pressure;BME280_temperature;BME280_humidity;BME280_pressure;Samples;Min_cycle;Max_cycle;Signal;HPM_P1;HPM_P2
2022/06/23 00:00:16;;;;;;;2.33;1.17;;;;;;;19.93;67.39;100200.69;4995790;28;102054;-47
2022/06/23 00:02:43;;;;;;;1.00;0.90;;;;;;;19.93;67.10;100197.94;4994497;28;102433;-47
2022/06/23 00:05:16;;;;;;;2.05;1.10;;;;;;;19.93;66.96;100197.94;4995444;28;102523;-47
2022/06/23 00:07:49;;;;;;;1.13;1.02;;;;;;;19.94;67.24;100190.44;4992491;28;103902;-47
2022/06/23 00:10:19;;;;;;;1.38;0.95;;;;;;;19.93;67.24;100195.16;4995350;28;102147;-47
2022/06/23 00:12:46;;;;;;;2.15;1.15;;;;;;;19.94;66.86;100195.97;4991842;28;104475;-47
2022/06/23 00:15:27;;;;;;;1.10;0.85;;;;;;;19.94;66.91;100201.47;4994737;28;102344;-47
2022/06/23 00:17:58;;;;;;;1.10;1.10;;;;;;;19.94;67.08;100201.47;4993961;28;104229;-47
2022/06/23 00:20:31;;;;;;;2.28;1.10;;;;;;;19.93;66.76;100195.16;4994791;28;102219;-48
2022/06/23 00:23:06;;;;;;;1.20;1.00;;;;;;;19.93;66.87;100203.44;4994111;28;102286;-46
2022/06/23 00:25:54;;;;;;;1.67;1.25;;;;;;;19.93;67.27;100206.22;4995183;28;102391;-48
2022/06/23 00:28:24;;;;;;;1.15;1.10;;;;;;;19.93;66.87;100203.44;4995232;28;104019;-46
2022/06/23 00:30:53;;;;;;;1.25;1.15;;;;;;;19.93;66.99;100202.66;4997833;28;102171;-47
2022/06/23 00:33:23;;;;;;;0.90;0.90;;;;;;;19.93;67.16;100205.41;4995594;28;102620;-46
2022/06/23 00:35:52;;;;;;;1.25;1.15;;;;;;;19.92;67.37;100198.28;4997453;28;102758;-47
2022/06/23 00:38:24;;;;;;;1.58;1.08;;;;;;;19.93;67.40;100192.41;4995054;28;103654;-47
2022/06/23 00:40:51;;;;;;;1.08;1.00;;;;;;;19.92;67.14;100201.84;4995883;28;102867;-47
2022/06/23 00:43:18;;;;;;;1.67;1.10;;;;;;;19.92;66.99;100193.56;4995605;28;102142;-46
2022/06/23 00:45:49;;;;;;;1.40;1.30;;;;;;;19.91;67.40;100191.97;4978974;28;102023;-47
2022/06/23 00:48:21;;;;;;;2.03;1.25;;;;;;;19.91;67.40;100183.69;4984472;28;103862;-47
2022/06/23 00:50:56;;;;;;;0.90;0.90;;;;;;;19.91;67.61;100175.38;4998027;28;102256;-47
2022/06/23 00:53:29;;;;;;;1.27;1.02;;;;;;;19.93;67.37;100183.31;4998009;28;102148;-46
2022/06/23 00:56:04;;;;;;;1.45;1.02;;;;;;;19.91;67.50;100180.13;4998542;28;102488;-47
2022/06/23 00:58:39;;;;;;;1.08;1.08;;;;;;;19.91;67.64;100185.63;4998080;28;103902;-47
2022/06/23 01:01:13;;;;;;;1.27;1.17;;;;;;;19.91;67.22;100185.63;4996069;28;102143;-46
2022/06/23 01:03:46;;;;;;;0.90;0.90;;;;;;;19.91;67.44;100188.41;4997649;28;102235;-47
2022/06/23 01:06:19;;;;;;;1.23;1.13;;;;;;;19.90;67.30;100179.28;4997676;28;102358;-47
2022/06/23 01:08:51;;;;;;;0.90;0.90;;;;;;;19.91;67.65;100188.41;4997930;28;103845;-47
2022/06/23 01:11:25;;;;;;;1.10;1.00;;;;;;;19.91;67.58;100197.47;4995730;28;101930;-47
2022/06/23 01:14:03;;;;;;;1.30;1.20;;;;;;;19.91;67.36;100197.47;4997675;28;102185;-48
2022/06/23 01:16:39;;;;;;;1.23;0.93;;;;;;;19.91;67.84;100191.16;4998470;28;102586;-47
2022/06/23 01:19:32;;;;;;;0.90;0.90;;;;;;;19.89;67.42;100194.25;4997143;28;103936;-47
2022/06/23 01:22:04;;;;;;;1.10;1.00;;;;;;;19.90;67.20;100184.81;4996503;28;102187;-47
2022/06/23 01:24:36;;;;;;;1.02;1.00;;;;;;;19.89;67.70;100183.22;4997694;28;102303;-47
2022/06/23 01:27:21;;;;;;;1.25;1.02;;;;;;;19.89;67.72;100188.72;4997031;28;102624;-47
2022/06/23 01:29:53;;;;;;;1.17;1.08;;;;;;;19.89;67.42;100177.69;4997362;28;103917;-48
2022/06/23 01:32:24;;;;;;;1.60;1.15;;;;;;;19.89;67.52;100191.50;4996439;28;102036;-47
2022/06/23 01:34:55;;;;;;;1.30;1.20;;;;;;;19.89;67.44;100197.00;4996518;28;102226;-47
2022/06/23 01:37:28;;;;;;;1.08;0.98;;;;;;;19.89;67.34;100183.22;4997015;28;102204;-47
2022/06/23 01:40:05;;;;;;;3.17;1.13;;;;;;;19.88;67.32;100198.16;4995858;28;104089;-48
2022/06/23 01:42:39;;;;;;;1.40;1.02;;;;;;;19.89;67.40;100197.00;4996321;28;102307;-46
2022/06/23 01:45:15;;;;;;;1.05;1.02;;;;;;;19.89;67.23;100194.25;4996448;28;102342;-47
2022/06/23 01:47:49;;;;;;;1.58;1.48;;;;;;;19.88;67.21;100198.16;4997652;28;102257;-47
2022/06/23 01:50:39;;;;;;;1.10;0.90;;;;;;;19.88;67.20;100200.94;4996475;28;103890;-47
2022/06/23 01:53:13;;;;;;;1.20;1.10;;;;;;;19.88;67.51;100189.88;4995373;28;102126;-47
2022/06/23 01:55:59;;;;;;;1.20;1.08;;;;;;;19.87;67.26;100185.53;4996728;28;102123;-47
2022/06/23 01:58:29;;;;;;;1.42;0.90;;;;;;;19.88;67.32;100191.84;4997420;28;102291;-47
2022/06/23 02:01:02;;;;;;;1.13;1.02;;;;;;;19.87;67.07;100193.81;4976556;28;103831;-47
2022/06/23 02:03:37;;;;;;;1.25;1.15;;;;;;;19.88;67.54;100202.91;4983134;28;102163;-47
2022/06/23 02:06:12;;;;;;;1.17;1.08;;;;;;;19.86;67.46;100200.47;4976564;28;101858;-47
2022/06/23 02:08:45;;;;;;;1.10;1.00;;;;;;;19.87;67.33;100184.69;4977297;28;102243;-47
2022/06/23 02:11:19;;;;;;;1.00;1.00;;;;;;;19.86;67.28;100186.66;4975902;28;103950;-47
2022/06/23 02:13:53;;;;;;;1.20;1.10;;;;;;;19.87;67.52;100201.25;4990763;28;102076;-47
2022/06/23 02:16:28;;;;;;;1.35;1.25;;;;;;;19.88;67.43;100208.41;4996305;28;102495;-47
2022/06/23 02:18:59;;;;;;;1.00;0.90;;;;;;;19.87;67.67;100212.31;4998075;28;102207;-47
2022/06/23 02:21:32;;;;;;;1.38;1.20;;;;;;;19.87;67.61;100213.13;4993697;28;108964;-48
2022/06/23 02:24:07;;;;;;;1.25;0.90;;;;;;;19.88;67.37;100206.47;4997359;28;102437;-47
2022/06/23 02:26:37;;;;;;;4.82;1.30;;;;;;;19.88;67.54;100209.22;4995691;28;102248;-47
2022/06/23 02:29:12;;;;;;;1.13;1.00;;;;;;;19.87;67.49;100201.25;4997701;28;102338;-47
2022/06/23 02:31:46;;;;;;;1.00;0.90;;;;;;;19.86;67.66;100205.97;4994641;28;104041;-47
2022/06/23 02:34:18;;;;;;;1.35;0.95;;;;;;;19.86;67.52;100199.66;4996641;28;101977;-47
2022/06/23 02:37:02;;;;;;;0.98;0.90;;;;;;;19.85;67.22;100200.81;4994175;28;102160;-46
2022/06/23 02:39:35;;;;;;;1.33;0.93;;;;;;;19.85;67.47;100192.53;4997694;28;102154;-47
2022/06/23 02:42:12;;;;;;;0.90;0.90;;;;;;;19.86;67.46;100205.97;4994493;28;103717;-47
2022/06/23 02:44:55;;;;;;;1.27;1.00;;;;;;;19.85;67.80;100209.91;4996838;28;102004;-47
2022/06/23 02:47:37;;;;;;;1.45;1.10;;;;;;;19.86;67.71;100216.22;4995640;28;102146;-47
2022/06/23 02:50:27;;;;;;;1.20;1.10;;;;;;;19.84;67.46;100213.81;4997331;28;102465;-47
2022/06/23 02:53:37;;;;;;;0.95;0.93;;;;;;;19.85;67.30;100220.94;4994000;28;108029;-48
2022/06/23 02:56:22;;;;;;;2.97;1.10;;;;;;;19.85;67.47;100218.19;4994468;28;102208;-47
2022/06/23 02:58:56;;;;;;;1.02;0.82;;;;;;;19.85;67.50;100214.63;4983224;28;102420;-48
2022/06/23 03:01:31;;;;;;;1.60;1.10;;;;;;;19.85;67.41;100209.09;4976247;28;101996;-48
2022/06/23 03:04:04;;;;;;;1.23;1.13;;;;;;;19.85;67.50;100211.88;4976295;28;104037;-46
2022/06/23 03:06:40;;;;;;;1.40;1.02;;;;;;;19.85;67.34;100215.44;4992962;28;102416;-47
2022/06/23 03:09:14;;;;;;;1.42;1.10;;;;;;;19.86;67.66;100221.75;4996373;28;102328;-46
2022/06/23 03:11:54;;;;;;;0.98;0.90;;;;;;;19.85;67.76;100218.19;4993662;28;102131;-46
2022/06/23 03:14:33;;;;;;;1.77;1.13;;;;;;;19.86;67.62;100227.28;4995691;28;104059;-48
2022/06/23 03:17:10;;;;;;;1.40;1.30;;;;;;;19.87;67.71;100228.88;4995699;28;102242;-47
2022/06/23 03:19:43;;;;;;;1.38;0.80;;;;;;;19.86;67.59;100233.59;4992034;28;101960;-47
2022/06/23 03:22:19;;;;;;;1.60;1.10;;;;;;;19.87;67.73;100229.72;4994988;28;102052;-47
2022/06/23 03:24:56;;;;;;;1.10;1.00;;;;;;;19.88;67.92;100227.75;4995044;28;104111;-48
2022/06/23 03:27:28;;;;;;;1.05;1.02;;;;;;;19.87;68.06;100224.19;4995286;28;102303;-47
2022/06/23 03:30:01;;;;;;;1.45;1.13;;;;;;;19.88;68.80;100231.31;4995150;28;102290;-48
2022/06/23 03:32:32;;;;;;;1.00;1.00;;;;;;;19.87;68.39;100221.44;4994785;28;102304;-47
2022/06/23 03:35:09;;;;;;;1.10;1.00;;;;;;;19.89;68.27;100216.34;4994563;28;103887;-47
2022/06/23 03:37:44;;;;;;;1.15;0.98;;;;;;;19.89;68.32;100221.06;4993468;28;102263;-48
2022/06/23 03:43:11;;;;;;;2.30;1.15;;;;;;;19.88;68.96;100203.69;4994728;28;102361;-47
2022/06/23 03:45:44;;;;;;;1.02;1.02;;;;;;;19.89;68.97;100208.06;4995339;28;104116;-46
2022/06/23 03:48:16;;;;;;;1.38;0.80;;;;;;;19.89;68.93;100219.09;4995641;28;102407;-47
2022/06/23 03:50:50;;;;;;;1.65;0.90;;;;;;;19.89;69.28;100221.06;4994822;28;102762;-48
2022/06/23 03:53:19;;;;;;;1.25;1.00;;;;;;;19.88;69.96;100209.22;4995118;28;102575;-48
2022/06/23 03:55:50;;;;;;;3.40;1.15;;;;;;;19.88;69.31;100203.69;4994746;28;107000;-47
2022/06/23 03:58:22;;;;;;;1.10;1.00;;;;;;;19.89;68.90;100221.88;4995770;28;102210;-46
2022/06/23 04:00:57;;;;;;;1.30;0.90;;;;;;;19.89;69.73;100210.81;4993590;28;102338;-47
2022/06/23 04:03:29;;;;;;;1.35;1.20;;;;;;;19.90;68.97;100217.16;4996407;28;102179;-48
2022/06/23 04:06:13;;;;;;;4.18;1.13;;;;;;;19.90;69.06;100222.66;4998494;28;103962;-47
2022/06/23 04:08:49;;;;;;;1.30;1.20;;;;;;;19.91;69.13;100229.81;4999181;28;102443;-47
2022/06/23 04:14:08;;;;;;;1.15;0.90;;;;;;;19.92;69.70;100231.41;4992890;28;102049;-47
2022/06/23 04:16:37;;;;;;;1.20;1.10;;;;;;;19.92;69.99;100232.22;4997136;28;104136;-46
2022/06/23 04:19:12;;;;;;;1.08;0.98;;;;;;;19.91;69.86;100236.16;4999168;28;102424;-47
2022/06/23 04:21:44;;;;;;;1.67;0.80;;;;;;;19.92;69.67;100232.22;4995472;28;104098;-47
2022/06/23 04:24:19;;;;;;;1.50;1.20;;;;;;;19.91;69.69;100219.56;4999751;28;102343;-47
2022/06/23 04:26:51;;;;;;;1.20;1.10;;;;;;;19.93;69.71;100221.97;4994335;28;107093;-47
2022/06/23 04:29:24;;;;;;;1.45;1.20;;;;;;;19.93;69.72;100225.53;4999205;28;102173;-47
2022/06/23 04:31:53;;;;;;;1.25;1.02;;;;;;;19.95;69.63;100218.88;4996827;28;102160;-47
2022/06/23 04:34:23;;;;;;;1.30;1.08;;;;;;;19.93;69.51;100220.00;4998789;28;102911;-48
2022/06/23 04:36:52;;;;;;;1.50;1.40;;;;;;;19.96;69.63;100209.44;4996748;28;107976;-47
2022/06/23 04:39:26;;;;;;;1.20;1.10;;;;;;;19.96;69.79;100214.97;4998813;28;102405;-48
2022/06/23 04:41:59;;;;;;;2.08;1.20;;;;;;;19.96;69.55;100212.19;4995937;28;102356;-47
2022/06/23 04:44:30;;;;;;;1.48;1.38;;;;;;;19.96;69.58;100203.91;4999346;28;102205;-48
2022/06/23 04:47:01;;;;;;;2.05;1.50;;;;;;;19.96;69.52;100206.69;4993778;28;103947;-47
2022/06/23 04:49:36;;;;;;;1.48;1.20;;;;;;;19.97;69.51;100205.53;4996356;28;102606;-47
2022/06/23 04:52:13;;;;;;;3.65;1.25;;;;;;;19.98;69.54;100201.59;4957915;28;101995;-47
2022/06/23 04:54:46;;;;;;;1.50;1.30;;;;;;;19.98;69.40;100213.47;4959968;28;102016;-47
2022/06/23 04:57:17;;;;;;;1.77;1.50;;;;;;;19.99;69.62;100215.06;4956485;28;103845;-47
2022/06/23 04:59:48;;;;;;;1.30;1.10;;;;;;;19.99;69.70;100209.56;4959088;28;102345;-47
2022/06/23 05:02:25;;;;;;;1.23;1.10;;;;;;;20.01;69.57;100211.94;4956674;28;102329;-47
2022/06/23 05:05:01;;;;;;;1.27;1.23;;;;;;;20.02;69.22;100214.38;4959999;28;102215;-47
2022/06/23 05:07:33;;;;;;;1.65;1.30;;;;;;;20.02;69.35;100214.38;4958130;28;103928;-48
2022/06/23 05:10:04;;;;;;;1.13;1.13;;;;;;;20.05;69.44;100218.38;4959076;28;102064;-48
2022/06/23 05:12:34;;;;;;;1.67;1.38;;;;;;;20.06;69.79;100217.25;4955911;28;104409;-48
2022/06/23 05:15:10;;;;;;;1.35;1.25;;;;;;;20.06;69.64;100220.81;4958459;28;102169;-47
2022/06/23 05:17:47;;;;;;;1.42;1.20;;;;;;;20.07;69.67;100211.38;4957634;28;103323;-47
2022/06/23 05:20:20;;;;;;;1.13;1.10;;;;;;;20.10;69.37;100216.22;4958537;28;102045;-47
2022/06/23 05:22:49;;;;;;;2.40;1.35;;;;;;;20.10;69.40;100218.16;4957444;28;102398;-47
2022/06/23 05:25:37;;;;;;;1.75;1.40;;;;;;;20.10;69.28;100209.88;4955984;28;102272;-47
2022/06/23 05:28:08;;;;;;;1.27;1.17;;;;;;;20.11;69.61;100212.28;4947421;28;104022;-48
2022/06/23 05:30:40;;;;;;;2.35;1.50;;;;;;;20.14;69.53;100216.31;4957359;28;102009;-47
2022/06/23 05:33:14;;;;;;;1.50;1.40;;;;;;;20.17;69.32;100215.63;4957759;28;102213;-48
2022/06/23 05:35:46;;;;;;;1.65;1.50;;;;;;;20.18;69.43;100228.28;4954833;28;102140;-47
2022/06/23 05:38:24;;;;;;;1.48;1.38;;;;;;;20.15;69.02;100221.47;4949424;28;103882;-48
2022/06/23 05:40:54;;;;;;;1.40;1.30;;;;;;;20.12;69.58;100227.72;4954643;28;102200;-48
2022/06/23 05:43:22;;;;;;;1.70;1.60;;;;;;;20.12;69.59;100230.50;4944138;28;102265;-47
2022/06/23 05:45:51;;;;;;;1.60;1.50;;;;;;;20.11;69.40;100228.06;4952728;28;102627;-47
2022/06/23 05:48:21;;;;;;;2.05;1.60;;;;;;;20.11;69.69;100230.81;4955474;28;104977;-47
2022/06/23 05:50:52;;;;;;;1.63;1.25;;;;;;;20.09;69.69;100241.44;4975969;28;102606;-47
2022/06/23 05:53:27;;;;;;;1.10;1.00;;;;;;;20.07;69.66;100239.00;4991469;28;102181;-48
2022/06/23 05:55:59;;;;;;;1.40;1.30;;;;;;;20.06;69.53;100242.13;4987114;28;102350;-48
2022/06/23 05:58:46;;;;;;;1.50;1.40;;;;;;;20.06;69.61;100242.91;4995393;28;103905;-47
2022/06/23 06:01:19;;;;;;;2.88;1.45;;;;;;;20.09;69.74;100238.66;4995357;28;102046;-48
2022/06/23 06:03:54;;;;;;;2.58;1.60;;;;;;;20.11;69.22;100239.91;4995358;28;102271;-48
2022/06/23 06:06:20;;;;;;;1.50;1.40;;;;;;;20.14;69.00;100243.94;4994605;28;102459;-48
2022/06/23 06:11:41;;;;;;;1.70;1.45;;;;;;;20.17;69.55;100232.19;4996896;28;102253;-47
2022/06/23 06:14:12;;;;;;;1.70;1.60;;;;;;;20.20;69.24;100239.00;4995571;28;102460;-48
2022/06/23 06:16:38;;;;;;;1.98;1.55;;;;;;;20.18;69.64;100233.81;4994628;28;102285;-47
2022/06/23 06:19:05;;;;;;;1.67;1.58;;;;;;;20.19;68.45;100229.09;4993617;28;103837;-47
2022/06/23 06:21:33;;;;;;;1.52;1.42;;;;;;;20.21;69.08;100235.88;4990940;28;102533;-48
2022/06/23 06:24:05;;;;;;;1.70;1.60;;;;;;;20.21;69.04;100246.13;4992355;28;102360;-48
2022/06/23 06:26:36;;;;;;;2.35;1.40;;;;;;;20.19;68.74;100249.22;4995862;28;102520;-47
2022/06/23 06:29:12;;;;;;;1.45;1.35;;;;;;;20.19;69.39;100240.13;4996261;28;104481;-47
2022/06/23 06:31:44;;;;;;;1.67;1.58;;;;;;;20.16;69.27;100247.97;4994552;28;102141;-47
2022/06/23 06:34:17;;;;;;;1.60;1.50;;;;;;;20.14;69.71;100241.97;4995076;28;102096;-47
2022/06/23 06:36:46;;;;;;;1.67;1.40;;;;;;;20.12;70.10;100237.94;4995423;28;102202;-48
2022/06/23 06:39:17;;;;;;;1.73;1.63;;;;;;;20.13;69.58;100239.59;4995102;28;103822;-47
2022/06/23 06:41:47;;;;;;;1.88;1.77;;;;;;;20.11;70.16;100250.16;4994858;28;102843;-48
2022/06/23 06:44:17;;;;;;;3.08;1.60;;;;;;;20.09;69.85;100247.75;4996019;28;102083;-47
2022/06/23 06:46:44;;;;;;;1.67;1.58;;;;;;;20.09;70.06;100246.97;4997149;28;102296;-48
2022/06/23 06:49:15;;;;;;;1.77;1.67;;;;;;;20.09;69.77;100238.66;4996189;28;103966;-48
2022/06/23 06:51:43;;;;;;;2.85;1.60;;;;;;;20.08;69.78;100237.03;4995879;28;102400;-48
2022/06/23 06:54:16;;;;;;;1.85;1.60;;;;;;;20.07;69.99;100255.56;4995742;28;102112;-47
2022/06/23 06:56:46;;;;;;;1.92;1.83;;;;;;;20.08;70.13;100250.84;4996398;28;102285;-48
2022/06/23 06:59:20;;;;;;;2.03;1.67;;;;;;;20.08;70.17;100256.38;4994426;28;103913;-46
2022/06/23 07:01:51;;;;;;;2.45;1.73;;;;;;;20.08;70.07;100259.13;4995921;28;101942;-48
2022/06/23 07:04:23;;;;;;;3.10;1.77;;;;;;;20.07;70.04;100254.78;4995914;28;102591;-48
2022/06/23 07:06:55;;;;;;;1.80;1.70;;;;;;;20.06;69.60;100261.47;4996846;28;101901;-46
2022/06/23 07:09:30;;;;;;;1.85;1.70;;;;;;;20.04;70.19;100258.22;4995472;28;103821;-48
2022/06/23 07:12:03;;;;;;;1.58;1.48;;;;;;;20.05;69.85;100268.09;4995785;28;102199;-46
2022/06/23 07:14:37;;;;;;;1.77;1.67;;;;;;;20.05;69.96;100273.63;4995802;28;102309;-48
2022/06/23 07:17:11;;;;;;;1.98;1.80;;;;;;;20.03;69.80;100273.19;4996110;28;102113;-48
2022/06/23 07:19:43;;;;;;;2.53;1.95;;;;;;;20.02;69.73;100264.09;4983638;28;103919;-48
2022/06/23 07:22:17;;;;;;;2.05;1.95;;;;;;;20.01;69.92;100269.97;4984407;28;102163;-47
2022/06/23 07:24:50;;;;;;;2.13;1.92;;;;;;;20.02;69.45;100268.81;4995321;28;101900;-48
2022/06/23 07:27:23;;;;;;;2.65;2.10;;;;;;;20.01;69.58;100267.19;4996876;28;102145;-48
2022/06/23 07:29:56;;;;;;;2.47;2.28;;;;;;;20.03;69.84;100259.38;4995051;28;103835;-48
2022/06/23 07:32:35;;;;;;;2.45;2.08;;;;;;;20.04;69.56;100261.78;4995864;28;102423;-47
2022/06/23 07:35:06;;;;;;;;;;;;;;;20.06;69.76;100264.22;4995601;28;102166;-48
2022/06/23 07:37:39;;;;;;;2.20;2.00;;;;;;;20.04;69.70;100275.59;4993433;28;103021;-48
2022/06/23 07:40:09;;;;;;;2.03;1.83;;;;;;;20.05;69.74;100273.63;4994043;28;103570;-48
2022/06/23 07:42:45;;;;;;;2.08;1.90;;;;;;;20.05;70.17;100268.09;4994792;28;102269;-47
2022/06/23 07:45:17;;;;;;;2.15;1.95;;;;;;;20.05;70.19;100270.88;4995264;28;102056;-47
2022/06/23 07:47:45;;;;;;;2.05;1.92;;;;;;;20.03;69.79;100264.91;4996474;28;102168;-48
2022/06/23 07:50:12;;;;;;;2.90;1.75;;;;;;;20.05;69.74;100270.88;4994824;28;103904;-48
2022/06/23 07:52:40;;;;;;;2.22;2.00;;;;;;;20.05;69.41;100274.47;4994448;28;101921;-48
2022/06/23 07:55:15;;;;;;;2.00;1.90;;;;;;;20.05;69.85;100265.34;4995140;28;102268;-48
2022/06/23 07:57:42;;;;;;;2.47;2.00;;;;;;;20.05;69.98;100277.22;4996162;28;102222;-47
2022/06/23 08:00:09;;;;;;;2.38;2.08;;;;;;;20.05;69.26;100274.47;4993535;28;103997;-47
2022/06/23 08:02:42;;;;;;;2.63;1.88;;;;;;;20.06;69.18;100270.53;4993766;28;103575;-47
2022/06/23 08:05:12;;;;;;;1.92;1.83;;;;;;;20.05;70.17;100271.72;4993103;28;102313;-47
2022/06/23 08:07:39;;;;;;;3.60;2.20;;;;;;;20.06;69.52;100276.06;4995653;28;102307;-47
2022/06/23 08:10:11;;;;;;;2.05;1.95;;;;;;;20.06;69.64;100280.78;4994639;28;103789;-48
2022/06/23 08:12:54;;;;;;;2.28;2.10;;;;;;;20.05;70.02;100285.53;4995262;28;102480;-48
2022/06/23 08:18:24;;;;;;;3.13;2.22;;;;;;;20.05;69.86;100273.63;4993527;28;102570;-47
2022/06/23 08:20:58;;;;;;;2.13;1.98;;;;;;;20.05;69.78;100284.69;4994222;28;103904;-48
2022/06/23 08:23:28;;;;;;;4.15;2.10;;;;;;;20.04;69.73;100278.34;4995148;28;102231;-47
2022/06/23 08:25:56;;;;;;;2.75;2.30;;;;;;;20.04;69.82;100283.09;4989507;28;102658;-48
2022/06/23 08:28:22;;;;;;;4.87;2.20;;;;;;;20.03;70.03;100273.19;4986828;28;102424;-48
2022/06/23 08:30:50;;;;;;;1.90;1.80;;;;;;;20.04;69.62;100274.78;4992444;28;104149;-47
2022/06/23 08:33:17;;;;;;;2.67;2.05;;;;;;;20.05;69.58;100292.97;4994694;28;102087;-49
2022/06/23 08:35:49;;;;;;;2.58;2.28;;;;;;;20.08;69.22;100289.53;4993109;28;101946;-48
2022/06/23 08:38:21;;;;;;;5.18;2.20;;;;;;;20.06;69.18;100297.38;4995936;28;102281;-48
2022/06/23 08:41:04;;;;;;;2.75;2.55;;;;;;;20.04;69.63;100305.19;4993173;28;103888;-48
2022/06/23 08:43:37;;;;;;;2.67;2.47;;;;;;;20.04;69.67;100302.41;4994243;28;102282;-48
2022/06/23 08:46:11;;;;;;;2.67;2.47;;;;;;;20.03;69.80;100304.38;4993778;28;104105;-47
2022/06/23 08:48:45;;;;;;;2.78;2.22;;;;;;;20.06;69.05;100291.84;4993688;28;102152;-48
2022/06/23 08:51:21;;;;;;;2.67;2.47;;;;;;;20.07;69.65;100297.00;4996992;28;104114;-48
2022/06/23 08:53:58;;;;;;;2.67;2.20;;;;;;;20.09;69.15;100285.63;4996943;28;102520;-47
2022/06/23 08:56:31;;;;;;;2.40;2.30;;;;;;;20.10;68.37;100290.00;4997626;28;101965;-47
2022/06/23 08:59:08;;;;;;;2.40;2.20;;;;;;;20.13;68.98;100278.25;4997395;28;102430;-48
2022/06/23 09:01:42;;;;;;;2.33;2.17;;;;;;;20.15;69.06;100284.22;4996282;28;103840;-48
2022/06/23 09:04:17;;;;;;;2.42;2.30;;;;;;;20.17;68.85;100281.94;4997012;28;102185;-47
2022/06/23 09:06:52;;;;;;;2.20;2.10;;;;;;;20.16;68.86;100283.91;4991341;28;102383;-47
2022/06/23 09:09:33;;;;;;;3.10;2.55;;;;;;;20.17;68.59;100287.47;4994153;28;102572;-47
2022/06/23 09:12:11;;;;;;;2.47;2.28;;;;;;;20.16;68.38;100285.84;4993809;28;103919;-47
2022/06/23 09:15:14;;;;;;;2.00;1.90;;;;;;;20.15;69.23;100295.28;4996176;28;102246;-48
2022/06/23 09:18:05;;;;;;;3.78;2.85;;;;;;;20.16;69.40;100291.38;4996352;28;102150;-47
2022/06/23 09:20:53;;;;;;;2.67;2.47;;;;;;;20.16;68.63;100280.34;4983841;28;102676;-47
2022/06/23 09:23:35;;;;;;;4.53;2.50;;;;;;;20.17;68.73;100288.25;4995882;28;103816;-48
2022/06/23 09:26:09;;;;;;;2.53;2.33;;;;;;;20.16;68.98;100286.66;4997729;28;102317;-47
2022/06/23 09:28:49;;;;;;;2.60;2.40;;;;;;;20.15;68.98;100295.28;4996946;28;102369;-47
2022/06/23 09:31:21;;;;;;;2.70;2.50;;;;;;;20.16;68.93;100299.66;4994504;28;102241;-47
2022/06/23 09:34:13;;;;;;;2.80;2.60;;;;;;;20.16;67.94;100302.44;4978723;28;104046;-47
2022/06/23 09:37:04;;;;;;;2.33;2.22;;;;;;;20.16;69.12;100297.72;4992243;28;102590;-47
2022/06/23 09:39:57;;;;;;;2.97;2.55;;;;;;;20.17;68.45;100298.50;4988775;28;102213;-46
2022/06/23 09:43:04;;;;;;;2.70;2.50;;;;;;;20.15;68.49;100300.81;4989344;28;103893;-48
2022/06/23 09:45:46;;;;;;;2.50;2.35;;;;;;;20.15;69.09;100300.81;4992230;28;103825;-48
2022/06/23 09:48:30;;;;;;;2.38;2.17;;;;;;;20.15;68.43;100296.06;4977562;28;101909;-47
2022/06/23 09:51:10;;;;;;;3.35;2.70;;;;;;;20.18;67.97;100305.63;4977749;28;102191;-48
2022/06/23 09:54:05;;;;;;;2.65;2.45;;;;;;;20.14;67.60;100300.00;4996809;28;102184;-47
2022/06/23 09:56:59;;;;;;;3.30;2.63;;;;;;;20.15;68.52;100287.00;4996991;28;103913;-48
2022/06/23 09:59:56;;;;;;;2.78;2.58;;;;;;;20.13;67.84;100297.59;4997382;28;102485;-48
2022/06/23 10:02:39;;;;;;;2.92;2.63;;;;;;;20.13;68.67;100305.88;4986342;28;102426;-48
2022/06/23 10:05:36;;;;;;;3.65;2.85;;;;;;;20.13;68.14;100297.59;4997475;28;102485;-48
2022/06/23 10:08:19;;;;;;;2.95;2.60;;;;;;;20.14;68.81;100296.44;4991350;28;108259;-48
2022/06/23 10:11:03;;;;;;;2.97;2.78;;;;;;;20.12;68.70;100298.72;4994134;28;102183;-47
2022/06/23 10:13:56;;;;;;;3.33;3.03;;;;;;;20.11;69.08;100294.34;4994924;28;102430;-47
2022/06/23 10:16:47;;;;;;;2.83;2.55;;;;;;;20.14;68.71;100299.19;4996177;28;102739;-48
2022/06/23 10:19:54;;;;;;;2.80;2.60;;;;;;;20.14;68.90;100299.19;4984502;28;104081;-47
2022/06/23 10:22:39;;;;;;;2.90;2.65;;;;;;;20.14;67.93;100304.72;4963879;28;102216;-47
2022/06/23 10:25:26;;;;;;;3.03;2.83;;;;;;;20.15;68.81;100311.84;4989407;28;102586;-47
2022/06/23 10:28:18;;;;;;;2.80;2.60;;;;;;;20.13;68.81;100295.63;4996953;28;102413;-48
2022/06/23 10:30:53;;;;;;;3.15;2.85;;;;;;;20.16;67.86;100296.91;4996520;28;104028;-47
2022/06/23 10:33:57;;;;;;;3.22;2.97;;;;;;;20.14;68.83;100304.72;4992756;28;101963;-48
2022/06/23 10:36:52;;;;;;;2.92;2.70;;;;;;;20.13;69.14;100314.97;4995717;28;102223;-48
2022/06/23 10:39:40;;;;;;;3.08;2.88;;;;;;;20.12;68.54;100313.38;4995963;28;102134;-47
2022/06/23 10:42:31;;;;;;;3.05;2.85;;;;;;;20.12;68.79;100312.53;4995019;28;103976;-47
2022/06/23 10:45:15;;;;;;;2.95;2.75;;;;;;;20.11;68.94;100310.94;4976931;28;102212;-47
2022/06/23 10:48:06;;;;;;;3.25;3.05;;;;;;;20.10;68.76;100314.84;4992441;28;102071;-48
2022/06/23 10:50:55;;;;;;;3.38;3.08;;;;;;;20.09;69.13;100329.81;4981490;28;102373;-48
2022/06/23 10:53:51;;;;;;;3.47;3.17;;;;;;;20.08;68.95;100336.47;4995467;28;104144;-48
2022/06/23 10:56:53;;;;;;;3.10;2.90;;;;;;;20.09;68.59;100335.34;4995301;28;101951;-47
2022/06/23 11:00:03;;;;;;;3.25;3.03;;;;;;;20.07;69.12;100337.63;4978761;28;102456;-48
2022/06/23 11:03:16;;;;;;;3.25;2.95;;;;;;;20.07;69.22;100345.94;4983026;28;102305;-47
2022/06/23 11:06:00;;;;;;;3.15;2.95;;;;;;;20.05;69.30;100335.25;4990420;28;103898;-47
2022/06/23 11:08:56;;;;;;;3.53;3.22;;;;;;;20.05;69.45;100334.41;4994129;28;102550;-48
2022/06/23 11:11:37;;;;;;;3.63;3.30;;;;;;;20.04;69.42;100333.59;4987900;28;102312;-48
2022/06/23 11:14:15;;;;;;;3.55;3.35;;;;;;;20.05;68.81;100348.22;4996490;28;102358;-47
2022/06/23 11:16:51;;;;;;;3.45;3.22;;;;;;;20.06;69.33;100347.09;4993956;28;103984;-48
2022/06/23 11:19:31;;;;;;;3.70;3.40;;;;;;;20.05;69.09;100345.44;4994836;28;102118;-47
2022/06/23 11:22:09;;;;;;;3.55;3.25;;;;;;;20.05;69.25;100339.94;4994757;28;102431;-47
2022/06/23 11:24:41;;;;;;;;;;;;;;;20.05;69.65;100345.44;4994207;28;102288;-48
2022/06/23 11:27:20;;;;;;;4.03;3.40;;;;;;;20.05;69.17;100345.44;4991567;28;103997;-48
2022/06/23 11:30:05;;;;;;;3.97;3.67;;;;;;;20.07;69.12;100348.69;4993044;28;102238;-47
2022/06/23 11:32:41;;;;;;;4.28;2.97;;;;;;;20.09;68.98;100346.41;4994239;28;102276;-48
2022/06/23 11:35:44;;;;;;;3.92;3.53;;;;;;;20.07;69.20;100335.69;4995349;28;102222;-48
2022/06/23 11:38:30;;;;;;;3.80;3.50;;;;;;;20.07;68.89;100332.13;4957674;28;103933;-47
2022/06/23 11:41:10;;;;;;;3.85;3.55;;;;;;;20.10;68.61;100331.44;4993376;28;102285;-48
2022/06/23 11:43:53;;;;;;;3.90;3.60;;;;;;;20.09;69.04;100340.88;4992291;28;102377;-47
2022/06/23 11:46:28;;;;;;;3.92;3.42;;;;;;;20.07;69.05;100343.16;4986787;28;102418;-46
2022/06/23 11:49:11;;;;;;;4.75;4.35;;;;;;;20.06;69.21;100352.63;4990640;28;103977;-47
2022/06/23 11:51:55;;;;;;;4.18;3.88;;;;;;;20.07;69.28;100346.72;4994113;28;102256;-47
2022/06/23 11:54:40;;;;;;;4.15;3.75;;;;;;;20.06;69.59;100355.38;4991787;28;102121;-47
2022/06/23 11:57:23;;;;;;;4.13;3.83;;;;;;;20.06;68.91;100347.09;4994720;28;102494;-48
2022/06/23 11:59:59;;;;;;;4.75;4.05;;;;;;;20.07;69.12;100348.69;4994871;28;104092;-47
2022/06/23 12:02:25;;;;;;;4.90;4.43;;;;;;;20.06;67.59;100355.38;4995223;28;102375;-48
2022/06/23 12:05:06;;;;;;;4.60;4.18;;;;;;;20.07;67.40;100348.69;4991233;28;102243;-48
2022/06/23 12:07:58;;;;;;;4.75;4.22;;;;;;;20.06;68.71;100349.84;4995065;28;102146;-48
2022/06/23 12:10:27;;;;;;;6.93;4.20;;;;;;;20.07;68.97;100352.25;4984328;28;103855;-48